TVS1111 LKPR-LOWL
Flight info
| Callsign | TVS1111 |
|---|---|
| Flight time | 0h 27m |
| Altitude | 18000 |
| Route | VOZ DCT LUPEV DCT ADLET ADLET2K |
| Aircraft | A320/M-SDE3FGHIRWY/LB1 |
Departure
| Time | 2026-04-22 21:41 |
|---|---|
| Airport | Václav Havel Airport Prague (LKPR) |
Arrival
| Time | 2026-04-22 22:08 |
|---|---|
| Airport | Linz-Hörsching Airport (LOWL) |
| Time | Latitude | Longitude | Altitude | Speed | Heading |
|---|---|---|---|---|---|
| 2026-04-22 21:08 | 50.10492 | 14.26488 | 1174 ft | 0 kts | 34° |
| 2026-04-22 21:21 | 50.10491 | 14.26486 | 1175 ft | 3 kts | 34° |
| 2026-04-22 21:21 | 50.10470 | 14.26465 | 1172 ft | 2 kts | 36° |
| 2026-04-22 21:21 | 50.10457 | 14.26448 | 1170 ft | 2 kts | 78° |
| 2026-04-22 21:22 | 50.10457 | 14.26432 | 1169 ft | 2 kts | 120° |
| 2026-04-22 21:22 | 50.10458 | 14.26429 | 1174 ft | 0 kts | 121° |
| 2026-04-22 21:24 | 50.10458 | 14.26431 | 1174 ft | 0 kts | 122° |
| 2026-04-22 21:25 | 50.10458 | 14.26429 | 1174 ft | 0 kts | 122° |
| 2026-04-22 21:25 | 50.10434 | 14.26481 | 1172 ft | 10 kts | 129° |
| 2026-04-22 21:25 | 50.10394 | 14.26565 | 1174 ft | 10 kts | 126° |
| 2026-04-22 21:25 | 50.10339 | 14.26601 | 1172 ft | 8 kts | 193° |
| 2026-04-22 21:26 | 50.10295 | 14.26564 | 1173 ft | 7 kts | 213° |
| 2026-04-22 21:26 | 50.10265 | 14.26536 | 1175 ft | 4 kts | 196° |
| 2026-04-22 21:26 | 50.10248 | 14.26536 | 1177 ft | 3 kts | 173° |
| 2026-04-22 21:26 | 50.10177 | 14.26657 | 1178 ft | 21 kts | 131° |
| 2026-04-22 21:27 | 50.10089 | 14.26808 | 1186 ft | 16 kts | 133° |
| 2026-04-22 21:27 | 50.10039 | 14.26913 | 1193 ft | 9 kts | 123° |
| 2026-04-22 21:27 | 50.09991 | 14.27019 | 1197 ft | 7 kts | 126° |
| 2026-04-22 21:27 | 50.09946 | 14.27117 | 1200 ft | 23 kts | 124° |
| 2026-04-22 21:28 | 50.09828 | 14.27339 | 1204 ft | 21 kts | 134° |
| 2026-04-22 21:28 | 50.09719 | 14.27505 | 1206 ft | 23 kts | 134° |
| 2026-04-22 21:28 | 50.09604 | 14.27683 | 1211 ft | 24 kts | 137° |
| 2026-04-22 21:28 | 50.09478 | 14.27881 | 1215 ft | 26 kts | 134° |
| 2026-04-22 21:29 | 50.09337 | 14.28095 | 1215 ft | 30 kts | 136° |
| 2026-04-22 21:29 | 50.09241 | 14.28234 | 1213 ft | 14 kts | 141° |
| 2026-04-22 21:29 | 50.09183 | 14.28278 | 1211 ft | 0 kts | 184° |
| 2026-04-22 21:29 | 50.09148 | 14.28261 | 1212 ft | 0 kts | 210° |
| 2026-04-22 21:39 | 50.09147 | 14.28260 | 1184 ft | 2 kts | 210° |
| 2026-04-22 21:39 | 50.09109 | 14.28180 | 1210 ft | 13 kts | 249° |
| 2026-04-22 21:39 | 50.09117 | 14.28023 | 1210 ft | 16 kts | 300° |
| 2026-04-22 21:39 | 50.09124 | 14.28006 | 1210 ft | 0 kts | 305° |
| 2026-04-22 21:40 | 50.09266 | 14.27709 | 1213 ft | 90 kts | 307° |
| 2026-04-22 21:41 | 50.09850 | 14.26498 | 1272 ft | 177 kts | 306° |
| 2026-04-22 21:41 | 50.10672 | 14.24821 | 1751 ft | 207 kts | 307° |
| 2026-04-22 21:41 | 50.11568 | 14.23033 | 2265 ft | 238 kts | 310° |
| 2026-04-22 21:41 | 50.12698 | 14.20847 | 2758 ft | 280 kts | 311° |
| 2026-04-22 21:42 | 50.13728 | 14.18908 | 3184 ft | 307 kts | 312° |
| 2026-04-22 21:42 | 50.15124 | 14.16142 | 3878 ft | 330 kts | 309° |
| 2026-04-22 21:42 | 50.16435 | 14.13291 | 5505 ft | 316 kts | 307° |
| 2026-04-22 21:42 | 50.17593 | 14.10716 | 7237 ft | 300 kts | 308° |
| 2026-04-22 21:43 | 50.18552 | 14.07962 | 9082 ft | 287 kts | 289° |
| 2026-04-22 21:43 | 50.18578 | 14.04886 | 10667 ft | 293 kts | 260° |
| 2026-04-22 21:43 | 50.17887 | 14.02589 | 11535 ft | 306 kts | 236° |
| 2026-04-22 21:43 | 50.16325 | 14.00256 | 12592 ft | 316 kts | 217° |
| 2026-04-22 21:44 | 50.14471 | 13.98430 | 13419 ft | 325 kts | 205° |
| 2026-04-22 21:44 | 50.12273 | 13.97719 | 14486 ft | 325 kts | 173° |
| 2026-04-22 21:44 | 50.10110 | 13.98682 | 15485 ft | 321 kts | 149° |
| 2026-04-22 21:44 | 50.08092 | 14.00242 | 16475 ft | 326 kts | 149° |
| 2026-04-22 21:45 | 50.06035 | 14.01771 | 17506 ft | 330 kts | 150° |
| 2026-04-22 21:45 | 50.04229 | 14.03075 | 18018 ft | 346 kts | 150° |
| 2026-04-22 21:45 | 50.01982 | 14.04670 | 18247 ft | 373 kts | 151° |
| 2026-04-22 21:45 | 49.99658 | 14.06301 | 18295 ft | 400 kts | 151° |
| 2026-04-22 21:46 | 49.97053 | 14.08114 | 18293 ft | 426 kts | 152° |
| 2026-04-22 21:46 | 49.94322 | 14.10001 | 18296 ft | 446 kts | 152° |
| 2026-04-22 21:46 | 49.91655 | 14.11833 | 18296 ft | 461 kts | 152° |
| 2026-04-22 21:46 | 49.88811 | 14.13779 | 18811 ft | 450 kts | 152° |
| 2026-04-22 21:47 | 49.86110 | 14.15860 | 18975 ft | 416 kts | 141° |
| 2026-04-22 21:47 | 49.83955 | 14.18774 | 18976 ft | 403 kts | 130° |
| 2026-04-22 21:47 | 49.82423 | 14.21457 | 18972 ft | 400 kts | 124° |
| 2026-04-22 21:47 | 49.80793 | 14.24827 | 18976 ft | 398 kts | 121° |
| 2026-04-22 21:48 | 49.79258 | 14.28303 | 18795 ft | 394 kts | 120° |
| 2026-04-22 21:48 | 49.77726 | 14.31818 | 18358 ft | 394 kts | 120° |
| 2026-04-22 21:48 | 49.76161 | 14.35303 | 18266 ft | 395 kts | 121° |
| 2026-04-22 21:48 | 49.74558 | 14.38732 | 18291 ft | 396 kts | 122° |
| 2026-04-22 21:49 | 49.72907 | 14.42142 | 18284 ft | 396 kts | 123° |
| 2026-04-22 21:49 | 49.71234 | 14.45525 | 18283 ft | 397 kts | 123° |
| 2026-04-22 21:49 | 49.69547 | 14.48896 | 18289 ft | 397 kts | 123° |
| 2026-04-22 21:49 | 49.67857 | 14.52265 | 18289 ft | 396 kts | 123° |
| 2026-04-22 21:50 | 49.66230 | 14.55651 | 18287 ft | 395 kts | 121° |
| 2026-04-22 21:50 | 49.64673 | 14.59202 | 18286 ft | 394 kts | 118° |
| 2026-04-22 21:50 | 49.63231 | 14.62713 | 18284 ft | 393 kts | 117° |
| 2026-04-22 21:50 | 49.61785 | 14.66357 | 18288 ft | 393 kts | 117° |
| 2026-04-22 21:51 | 49.60388 | 14.69909 | 18287 ft | 393 kts | 117° |
| 2026-04-22 21:51 | 49.58956 | 14.73511 | 18285 ft | 394 kts | 117° |
| 2026-04-22 21:51 | 49.57509 | 14.77097 | 18283 ft | 394 kts | 117° |
| 2026-04-22 21:52 | 49.54524 | 14.84179 | 18284 ft | 398 kts | 124° |
| 2026-04-22 21:52 | 49.52365 | 14.86903 | 18283 ft | 411 kts | 148° |
| 2026-04-22 21:52 | 49.49554 | 14.88169 | 18280 ft | 424 kts | 172° |
| 2026-04-22 21:52 | 49.46669 | 14.87716 | 18291 ft | 433 kts | 194° |
| 2026-04-22 21:53 | 49.43969 | 14.85642 | 18286 ft | 437 kts | 213° |
| 2026-04-22 21:53 | 49.41479 | 14.82949 | 18289 ft | 438 kts | 214° |
| 2026-04-22 21:53 | 49.38993 | 14.80251 | 18289 ft | 438 kts | 214° |
| 2026-04-22 21:53 | 49.36495 | 14.77583 | 18293 ft | 438 kts | 211° |
| 2026-04-22 21:54 | 49.33785 | 14.75481 | 18283 ft | 436 kts | 202° |
| 2026-04-22 21:54 | 49.30995 | 14.73674 | 18290 ft | 435 kts | 200° |
| 2026-04-22 21:54 | 49.28166 | 14.72004 | 18283 ft | 435 kts | 198° |
| 2026-04-22 21:54 | 49.25347 | 14.70409 | 18287 ft | 435 kts | 198° |
| 2026-04-22 21:55 | 49.22508 | 14.68811 | 18289 ft | 435 kts | 198° |
| 2026-04-22 21:55 | 49.19668 | 14.67181 | 18291 ft | 436 kts | 198° |
| 2026-04-22 21:55 | 49.16841 | 14.65523 | 18292 ft | 436 kts | 199° |
| 2026-04-22 21:55 | 49.14050 | 14.63860 | 18296 ft | 436 kts | 199° |
| 2026-04-22 21:56 | 49.11228 | 14.62161 | 18285 ft | 436 kts | 199° |
| 2026-04-22 21:56 | 49.08404 | 14.60455 | 18287 ft | 436 kts | 199° |
| 2026-04-22 21:56 | 49.05591 | 14.58762 | 18295 ft | 436 kts | 199° |
| 2026-04-22 21:56 | 49.02761 | 14.57068 | 18293 ft | 436 kts | 199° |
| 2026-04-22 21:57 | 48.99935 | 14.55385 | 18288 ft | 436 kts | 199° |
| 2026-04-22 21:57 | 48.97110 | 14.53704 | 18288 ft | 436 kts | 199° |
| 2026-04-22 21:57 | 48.94277 | 14.52021 | 18293 ft | 436 kts | 199° |
| 2026-04-22 21:57 | 48.91453 | 14.50344 | 18296 ft | 436 kts | 199° |
| 2026-04-22 21:58 | 48.88625 | 14.48667 | 18185 ft | 435 kts | 199° |
| 2026-04-22 21:58 | 48.85810 | 14.47000 | 18035 ft | 434 kts | 199° |
| 2026-04-22 21:58 | 48.83010 | 14.45344 | 17405 ft | 430 kts | 199° |
| 2026-04-22 21:58 | 48.80240 | 14.43706 | 16674 ft | 424 kts | 200° |
| 2026-04-22 21:59 | 48.77541 | 14.42115 | 15964 ft | 419 kts | 200° |
| 2026-04-22 21:59 | 48.74810 | 14.40511 | 15224 ft | 414 kts | 200° |
| 2026-04-22 21:59 | 48.72136 | 14.38941 | 14458 ft | 410 kts | 200° |
| 2026-04-22 21:59 | 48.69504 | 14.37397 | 13669 ft | 406 kts | 201° |
| 2026-04-22 22:00 | 48.66879 | 14.35854 | 12834 ft | 401 kts | 201° |
| 2026-04-22 22:00 | 48.64291 | 14.34336 | 12016 ft | 395 kts | 201° |
| 2026-04-22 22:00 | 48.61748 | 14.32848 | 11242 ft | 389 kts | 201° |
| 2026-04-22 22:00 | 48.59356 | 14.31449 | 10508 ft | 384 kts | 201° |
| 2026-04-22 22:01 | 48.56896 | 14.29971 | 9705 ft | 377 kts | 204° |
| 2026-04-22 22:01 | 48.54579 | 14.28322 | 8896 ft | 370 kts | 207° |
| 2026-04-22 22:01 | 48.52327 | 14.26522 | 8097 ft | 363 kts | 210° |
| 2026-04-22 22:01 | 48.50149 | 14.24666 | 7497 ft | 357 kts | 211° |
| 2026-04-22 22:02 | 48.48002 | 14.22802 | 7313 ft | 356 kts | 211° |
| 2026-04-22 22:02 | 48.45849 | 14.20946 | 7290 ft | 356 kts | 210° |
| 2026-04-22 22:02 | 48.43678 | 14.19166 | 7204 ft | 354 kts | 205° |
| 2026-04-22 22:02 | 48.41395 | 14.18383 | 6595 ft | 347 kts | 180° |
| 2026-04-22 22:03 | 48.39080 | 14.19171 | 5684 ft | 341 kts | 152° |
| 2026-04-22 22:03 | 48.37231 | 14.21317 | 4772 ft | 334 kts | 131° |
| 2026-04-22 22:03 | 48.36242 | 14.23077 | 4312 ft | 334 kts | 125° |
| 2026-04-22 22:03 | 48.34880 | 14.25904 | 4069 ft | 333 kts | 123° |
| 2026-04-22 22:04 | 48.33506 | 14.28718 | 3995 ft | 335 kts | 125° |
| 2026-04-22 22:04 | 48.32036 | 14.31435 | 4012 ft | 335 kts | 128° |
| 2026-04-22 22:04 | 48.30476 | 14.34033 | 4109 ft | 336 kts | 131° |
| 2026-04-22 22:04 | 48.28803 | 14.36550 | 4002 ft | 337 kts | 137° |
| 2026-04-22 22:05 | 48.26726 | 14.38172 | 4011 ft | 341 kts | 166° |
| 2026-04-22 22:05 | 48.24378 | 14.38183 | 3950 ft | 340 kts | 193° |
| 2026-04-22 22:05 | 48.22376 | 14.36650 | 3788 ft | 305 kts | 222° |
| 2026-04-22 22:05 | 48.21300 | 14.34283 | 3256 ft | 246 kts | 251° |
| 2026-04-22 22:06 | 48.21308 | 14.32009 | 2461 ft | 203 kts | 295° |
| 2026-04-22 22:06 | 48.21952 | 14.30346 | 2267 ft | 178 kts | 301° |
| 2026-04-22 22:06 | 48.22529 | 14.28701 | 2072 ft | 178 kts | 301° |
| 2026-04-22 22:06 | 48.23215 | 14.27168 | 1952 ft | 177 kts | 304° |
| 2026-04-22 22:07 | 48.23547 | 14.25511 | 1686 ft | 164 kts | 273° |
| 2026-04-22 22:07 | 48.23496 | 14.23911 | 1468 ft | 145 kts | 267° |
| 2026-04-22 22:07 | 48.23448 | 14.22477 | 1279 ft | 136 kts | 267° |
| 2026-04-22 22:07 | 48.23397 | 14.21069 | 1093 ft | 135 kts | 266° |
| 2026-04-22 22:08 | 48.23348 | 14.19741 | 1012 ft | 132 kts | 267° |
| 2026-04-22 22:08 | 48.23306 | 14.18522 | 985 ft | 110 kts | 267° |
| 2026-04-22 22:08 | 48.23278 | 14.17702 | 993 ft | 37 kts | 265° |
| 2026-04-22 22:08 | 48.23270 | 14.17311 | 986 ft | 38 kts | 269° |
| 2026-04-22 22:09 | 48.23273 | 14.17122 | 983 ft | 3 kts | 295° |
| 2026-04-22 22:09 | 48.23279 | 14.17080 | 988 ft | 1 kts | 227° |
| 2026-04-22 22:09 | 48.23239 | 14.17101 | 987 ft | 12 kts | 120° |
| 2026-04-22 22:09 | 48.23256 | 14.17200 | 993 ft | 11 kts | 68° |
| 2026-04-22 22:10 | 48.23277 | 14.17485 | 987 ft | 33 kts | 84° |
| 2026-04-22 22:10 | 48.23298 | 14.17784 | 992 ft | 24 kts | 83° |
| 2026-04-22 22:10 | 48.23392 | 14.17890 | 990 ft | 17 kts | 18° |
| 2026-04-22 22:10 | 48.23520 | 14.17954 | 983 ft | 22 kts | 16° |
| 2026-04-22 22:11 | 48.23682 | 14.18035 | 979 ft | 25 kts | 38° |
| 2026-04-22 22:11 | 48.23728 | 14.18269 | 985 ft | 26 kts | 82° |
| 2026-04-22 22:11 | 48.23731 | 14.18472 | 981 ft | 19 kts | 88° |
| 2026-04-22 22:11 | 48.23741 | 14.18688 | 988 ft | 23 kts | 85° |
| 2026-04-22 22:12 | 48.23777 | 14.18775 | 984 ft | 8 kts | 20° |
| 2026-04-22 22:12 | 48.23839 | 14.18784 | 977 ft | 11 kts | 359° |
| 2026-04-22 22:12 | 48.23865 | 14.18796 | 977 ft | 0 kts | 96° |
| 2026-04-22 22:12 | 48.23872 | 14.18797 | 976 ft | 0 kts | 96° |